Sterling/Rock Falls, Illinois
Current Conditions -  °F | °C
As of 11:15 PM on Thursday 30 Oct 2014 (Local Time) from KSQI Reporting Station
Overcast Overcast  
Wind Chill:   Ceiling: 5000
Heat Index:   Visibility: 10mi
Dew Point:   Wind: 8mph
Humidity: 71%   Direction: 310°NW
Pressure: 30.09"   Gusts: NA
Location:  41.73°N, 89.68°W
Report Text: KSQI 310415Z AUTO 31007KT 10SM OVC050 08/03 A3009 RMK AO1
Loading
Personal Weather Stations






























Interactive Weather Map
Tropical Storm Tracking
New forecast layout! Learn more

10-Day Weather Forecast

Advertisements
Track Severe Weather on mobile